Welcome to Northern Hawkes Bay. New Zealand.
PWS Header
      nz Flag



Hit Counter


W3C Valid W3C Valid logo


    Wairoa

Select any of the Stations below to visit their websites.










Historic Data from Weather Underground
Select the location of interest below. Wairoa is the default. Please have patience, this Data is slow to load in.
Northern Hawkes Bay Historical Data
Daily Summary for April 11, 2017 Units:  Metric    English   Both
« Previous Day
Next Day »
Daily Weekly Monthly Yearly Custom
  High: Low: Average:
Temperature: 25.8 °C 11.1 °C 18.1 °C
Dew Point: 17.2 °C 10.8 °C 14.8 °C
Humidity: 99% 58% 82%
Wind Speed: 15.8km/h 0.0km/h 1.8km/h
Wind Gust: 34.6km/h - -
Wind- - SE
Pressure: 1023.9 hPa 1018.5 hPa -
Precipitation: 0.0 mm    
Historical Graphs
 
 
Tabular Data for April 11, 2017
Time Temperature Dew Point Pressure Wind Wind Speed Wind Gust Humidity Rainfall Rate (Hourly) solar
00:03 14.7 °C 13.9 °C 1023.9 hPa Calm     95% 0.0 mm 0 W/m2
00:10 14.6 °C 13.8 °C 1023.9 hPa Calm     95% 0.0 mm 0 W/m2
00:15 14.2 °C 13.3 °C 1023.6 hPa Calm     94% 0.0 mm 0 W/m2
00:21 14.2 °C 13.4 °C 1023.6 hPa Calm     95% 0.0 mm 0 W/m2
00:27 14.0 °C 13.2 °C 1023.6 hPa Calm     95% 0.0 mm 0 W/m2
00:33 13.9 °C 13.3 °C 1023.6 hPa Calm     96% 0.0 mm 0 W/m2
00:39 13.8 °C 13.2 °C 1023.6 hPa Calm     96% 0.0 mm 0 W/m2
00:45 13.7 °C 13.2 °C 1023.6 hPa Calm     97% 0.0 mm 0 W/m2
00:51 13.6 °C 13.1 °C 1023.6 hPa Calm     97% 0.0 mm 0 W/m2
00:57 13.6 °C 13.1 °C 1023.6 hPa Calm     97% 0.0 mm 0 W/m2
01:03 13.4 °C 12.9 °C 1023.6 hPa Calm     97% 0.0 mm 0 W/m2
01:10 13.2 °C 12.7 °C 1023.6 hPa Calm     97% 0.0 mm 0 W/m2
01:15 13.1 °C 12.7 °C 1023.2 hPa Calm     97% 0.0 mm 0 W/m2
01:21 13.2 °C 12.9 °C 1023.6 hPa Calm     98% 0.0 mm 0 W/m2
01:27 13.2 °C 12.9 °C 1023.2 hPa Calm     98% 0.0 mm 0 W/m2
01:33 12.9 °C 12.4 °C 1023.2 hPa Calm     97% 0.0 mm 0 W/m2
01:39 12.8 °C 12.3 °C 1023.6 hPa Calm     97% 0.0 mm 0 W/m2
01:45 12.7 °C 12.2 °C 1023.2 hPa Calm     97% 0.0 mm 0 W/m2
01:51 12.5 °C 12.1 °C 1023.6 hPa Calm     97% 0.0 mm 0 W/m2
01:57 12.5 °C 12.1 °C 1023.6 hPa Calm     97% 0.0 mm 0 W/m2
02:03 12.5 °C 12.1 °C 1023.6 hPa Calm     97% 0.0 mm 0 W/m2
02:09 12.5 °C 12.1 °C 1023.6 hPa Calm     97% 0.0 mm 0 W/m2
02:15 12.4 °C 11.9 °C 1023.2 hPa Calm     97% 0.0 mm 0 W/m2
02:21 12.4 °C 11.9 °C 1023.2 hPa Calm     97% 0.0 mm 0 W/m2
02:27 12.3 °C 11.8 °C 1022.9 hPa Calm     97% 0.0 mm 0 W/m2
02:33 12.2 °C 11.7 °C 1023.2 hPa Calm     97% 0.0 mm 0 W/m2
02:39 12.2 °C 11.7 °C 1023.2 hPa Calm     97% 0.0 mm 0 W/m2
02:45 12.2 °C 11.7 °C 1022.9 hPa Calm     97% 0.0 mm 0 W/m2
02:51 12.2 °C 11.7 °C 1023.2 hPa Calm     97% 0.0 mm 0 W/m2
02:57 12.1 °C 11.7 °C 1022.9 hPa Calm     97% 0.0 mm 0 W/m2
03:03 12.1 °C 11.7 °C 1022.9 hPa Calm     97% 0.0 mm 0 W/m2
03:09 12.1 °C 11.7 °C 1022.9 hPa Calm     97% 0.0 mm 0 W/m2
03:15 12.1 °C 11.7 °C 1022.6 hPa Calm     97% 0.0 mm 0 W/m2
03:21 12.1 °C 11.7 °C 1022.6 hPa Calm     97% 0.0 mm 0 W/m2
03:27 12.1 °C 11.7 °C 1022.6 hPa Calm     97% 0.0 mm 0 W/m2
03:33 12.1 °C 11.7 °C 1022.6 hPa Calm   6.1 km/h 97% 0.0 mm 0 W/m2
03:39 12.2 °C 11.7 °C 1022.6 hPa NW 3.5 km/h 6.1 km/h 97% 0.0 mm 0 W/m2
03:45 12.1 °C 11.7 °C 1022.6 hPa Calm   6.1 km/h 97% 0.0 mm 0 W/m2
03:51 11.8 °C 11.5 °C 1022.6 hPa Calm   6.1 km/h 98% 0.0 mm 0 W/m2
03:57 11.7 °C 11.4 °C 1022.6 hPa Calm     98% 0.0 mm 0 W/m2
04:03 11.7 °C 11.4 °C 1022.6 hPa NW 3.5 km/h 7.2 km/h 98% 0.0 mm 0 W/m2
04:10 12.2 °C 11.7 °C 1022.6 hPa NW 3.5 km/h 7.2 km/h 97% 0.0 mm 0 W/m2
04:15 11.7 °C 11.4 °C 1022.6 hPa Calm   6.1 km/h 98% 0.0 mm 0 W/m2
04:21 11.5 °C 11.2 °C 1022.6 hPa NW 3.5 km/h 6.1 km/h 98% 0.0 mm 0 W/m2
04:27 11.7 °C 11.4 °C 1022.6 hPa NW 2.6 km/h 7.2 km/h 98% 0.0 mm 0 W/m2
04:33 11.4 °C 11.1 °C 1022.6 hPa Calm   7.2 km/h 98% 0.0 mm 0 W/m2
04:39 11.5 °C 11.2 °C 1022.6 hPa Calm   2.6 km/h 98% 0.0 mm 0 W/m2
04:45 11.1 °C 10.8 °C 1022.6 hPa Calm     98% 0.0 mm 0 W/m2
04:51 11.4 °C 11.1 °C 1022.6 hPa Calm     98% 0.0 mm 0 W/m2
04:57 12.0 °C 11.6 °C 1022.2 hPa Calm     97% 0.0 mm 0 W/m2
05:03 11.4 °C 11.1 °C 1022.2 hPa Calm     98% 0.0 mm 0 W/m2
05:09 11.4 °C 11.1 °C 1022.2 hPa NNW 3.5 km/h 6.1 km/h 98% 0.0 mm 0 W/m2
05:15 11.6 °C 11.3 °C 1022.2 hPa Calm   6.1 km/h 98% 0.0 mm 0 W/m2
05:21 11.4 °C 11.1 °C 1022.6 hPa Calm   5.0 km/h 98% 0.0 mm 0 W/m2
05:27 11.5 °C 11.2 °C 1022.6 hPa NNW 3.5 km/h 7.2 km/h 98% 0.0 mm 0 W/m2
05:33 11.5 °C 11.2 °C 1022.6 hPa NNW 3.5 km/h 34.6 km/h 98% 0.0 mm 0 W/m2
05:39 12.0 °C 11.6 °C 1022.2 hPa Calm   34.6 km/h 97% 0.0 mm 0 W/m2
05:45 12.1 °C 11.7 °C 1022.2 hPa Calm   5.0 km/h 97% 0.0 mm 0 W/m2
05:51 12.0 °C 11.6 °C 1021.9 hPa Calm     97% 0.0 mm 0 W/m2
05:57 12.0 °C 11.6 °C 1021.9 hPa Calm   6.1 km/h 97% 0.0 mm 0 W/m2
06:03 11.9 °C 11.6 °C 1021.9 hPa North 6.1 km/h 8.7 km/h 98% 0.0 mm 0 W/m2
06:09 12.0 °C 11.6 °C 1021.9 hPa NNW 5.0 km/h 9.7 km/h 97% 0.0 mm 0 W/m2
06:15 12.0 °C 11.6 °C 1021.9 hPa Calm   9.7 km/h 97% 0.0 mm 0 W/m2
06:21 12.1 °C 11.7 °C 1021.9 hPa Calm   6.1 km/h 97% 0.0 mm 0 W/m2
06:27 12.1 °C 11.7 °C 1021.6 hPa Calm     97% 0.0 mm 1 W/m2
06:33 12.1 °C 11.7 °C 1021.6 hPa Calm     97% 0.0 mm 2 W/m2
06:39 12.0 °C 11.6 °C 1021.6 hPa Calm     97% 0.0 mm 4 W/m2
06:45 11.7 °C 11.4 °C 1021.6 hPa Calm     98% 0.0 mm 6 W/m2
06:51 11.9 °C 11.6 °C 1021.6 hPa Calm     98% 0.0 mm 13 W/m2
06:57 11.8 °C 11.5 °C 1021.9 hPa NW 5.0 km/h 6.1 km/h 98% 0.0 mm 26 W/m2
07:03 12.3 °C 11.8 °C 1021.9 hPa NW 3.5 km/h 7.2 km/h 97% 0.0 mm 40 W/m2
07:10 12.5 °C 12.1 °C 1022.2 hPa Calm   7.2 km/h 97% 0.0 mm 26 W/m2
07:15 12.6 °C 12.2 °C 1022.2 hPa Calm   5.0 km/h 97% 0.0 mm 84 W/m2
07:21 12.9 °C 12.4 °C 1022.2 hPa Calm     97% 0.0 mm 71 W/m2
07:27 13.2 °C 13.1 °C 1022.2 hPa Calm     99% 0.0 mm 92 W/m2
07:33 13.3 °C 13.2 °C 1022.2 hPa Calm   5.0 km/h 99% 0.0 mm 99 W/m2
07:39 14.2 °C 14.1 °C 1022.2 hPa Calm   3.5 km/h 99% 0.0 mm 215 W/m2
07:45 14.4 °C 14.3 °C 1022.2 hPa Calm     99% 0.0 mm 261 W/m2
07:51 15.7 °C 15.6 °C 1022.2 hPa Calm     99% 0.0 mm 175 W/m2
07:57 16.1 °C 15.8 °C 1022.2 hPa NW 5.0 km/h 7.2 km/h 98% 0.0 mm 201 W/m2
08:03 16.2 °C 14.9 °C 1022.6 hPa NNW 6.1 km/h 8.7 km/h 92% 0.0 mm 101 W/m2
08:09 16.5 °C 14.9 °C 1022.2 hPa Calm   8.7 km/h 90% 0.0 mm 95 W/m2
08:15 16.1 °C 14.4 °C 1022.6 hPa Calm   5.0 km/h 90% 0.0 mm 93 W/m2
08:37 17.0 °C 15.2 °C 1022.6 hPa Calm     89% 0.0 mm 104 W/m2
08:43 17.1 °C 14.7 °C 1022.6 hPa Calm     86% 0.0 mm 120 W/m2
08:50 16.8 °C 14.6 °C 1022.2 hPa NNW 2.6 km/h 6.1 km/h 87% 0.0 mm 146 W/m2
08:55 16.8 °C 14.4 °C 1022.6 hPa NNW 3.5 km/h 9.7 km/h 86% 0.0 mm 247 W/m2
09:01 17.3 °C 14.9 °C 1022.6 hPa Calm   9.7 km/h 86% 0.0 mm 337 W/m2
09:07 18.8 °C 16.1 °C 1022.2 hPa North 1.1 km/h 5.0 km/h 84% 0.0 mm 233 W/m2
09:11 18.9 °C 15.6 °C 1022.6 hPa Calm   5.0 km/h 81% 0.0 mm 375 W/m2
09:17 20.0 °C 16.3 °C 1022.6 hPa North 3.5 km/h 5.0 km/h 79% 0.0 mm 398 W/m2
09:23 20.5 °C 15.9 °C 1022.2 hPa Calm   6.1 km/h 75% 0.0 mm 392 W/m2
09:29 21.2 °C 16.2 °C 1022.6 hPa North 1.1 km/h 6.1 km/h 73% 0.0 mm 396 W/m2
09:35 21.8 °C 16.1 °C 1022.2 hPa NNW 6.1 km/h 7.2 km/h 70% 0.0 mm 225 W/m2
09:41 22.3 °C 16.1 °C 1022.6 hPa Calm   7.2 km/h 68% 0.0 mm 112 W/m2
09:47 22.4 °C 15.8 °C 1022.2 hPa Calm   8.7 km/h 66% 0.0 mm 99 W/m2
09:49 22.7 °C 16.1 °C 1022.2 hPa NNE 3.5 km/h 8.7 km/h 66% 0.0 mm 100 W/m2
09:55 22.7 °C 16.1 °C 1022.2 hPa North 2.6 km/h 7.2 km/h 66% 0.0 mm 115 W/m2
10:01 22.1 °C 15.0 °C 1022.2 hPa NNW 1.1 km/h 12.2 km/h 64% 0.0 mm 135 W/m2
10:07 21.5 °C 15.6 °C 1022.2 hPa North 1.1 km/h 12.2 km/h 69% 0.0 mm 186 W/m2
10:13 21.7 °C 16.0 °C 1022.2 hPa Calm   6.1 km/h 70% 0.0 mm 219 W/m2
10:20 21.3 °C 16.1 °C 1021.9 hPa Calm   6.1 km/h 72% 0.0 mm 253 W/m2
10:25 22.2 °C 16.5 °C 1022.2 hPa Calm     70% 0.0 mm 288 W/m2
10:31 22.8 °C 16.1 °C 1022.2 hPa Calm   5.0 km/h 66% 0.0 mm 292 W/m2
10:37 22.9 °C 15.7 °C 1021.9 hPa WSW 3.5 km/h 7.2 km/h 64% 0.0 mm 245 W/m2
10:43 22.8 °C 16.4 °C 1021.9 hPa SSE 5.0 km/h 7.2 km/h 67% 0.0 mm 321 W/m2
10:49 22.3 °C 16.1 °C 1021.9 hPa Calm   7.2 km/h 68% 0.0 mm 324 W/m2
10:55 21.8 °C 16.3 °C 1022.2 hPa SSE 5.0 km/h 8.7 km/h 71% 0.0 mm 305 W/m2
11:01 21.6 °C 16.3 °C 1021.9 hPa SSE 6.1 km/h 8.7 km/h 72% 0.0 mm 414 W/m2
11:07 21.7 °C 16.4 °C 1021.9 hPa South 6.1 km/h 9.7 km/h 72% 0.0 mm 261 W/m2
11:13 22.0 °C 16.3 °C 1021.9 hPa South 5.0 km/h 9.7 km/h 70% 0.0 mm 295 W/m2
11:20 21.6 °C 16.1 °C 1021.9 hPa SSE 5.0 km/h 8.7 km/h 71% 0.0 mm 335 W/m2
11:25 22.2 °C 16.7 °C 1021.9 hPa SSE 2.6 km/h 8.7 km/h 71% 0.0 mm 281 W/m2
11:31 21.9 °C 15.9 °C 1021.9 hPa SSE 3.5 km/h 7.2 km/h 69% 0.0 mm 278 W/m2
11:37 22.8 °C 16.8 °C 1021.9 hPa Calm   7.2 km/h 69% 0.0 mm 398 W/m2
11:43 22.5 °C 14.6 °C 1021.9 hPa East 1.1 km/h 9.7 km/h 61% 0.0 mm 320 W/m2
11:49 22.6 °C 14.7 °C 1021.9 hPa NNE 3.5 km/h 12.2 km/h 61% 0.0 mm 336 W/m2
11:55 22.8 °C 14.9 °C 1021.6 hPa NNE 6.1 km/h 14.8 km/h 61% 0.0 mm 305 W/m2
12:01 22.4 °C 14.5 °C 1021.6 hPa NNE 6.1 km/h 14.8 km/h 61% 0.0 mm 265 W/m2
12:07 22.5 °C 14.6 °C 1021.6 hPa NE 5.0 km/h 12.2 km/h 61% 0.0 mm 238 W/m2
12:13 22.0 °C 14.2 °C 1021.6 hPa NNE 2.6 km/h 12.2 km/h 61% 0.0 mm 214 W/m2
12:19 22.4 °C 14.5 °C 1021.6 hPa NNE 5.0 km/h 13.4 km/h 61% 0.0 mm 180 W/m2
12:25 22.6 °C 14.7 °C 1021.6 hPa NE 5.0 km/h 13.4 km/h 61% 0.0 mm 179 W/m2
12:31 22.4 °C 14.8 °C 1021.6 hPa NE 5.0 km/h 9.7 km/h 62% 0.0 mm 180 W/m2
12:37 22.5 °C 14.9 °C 1021.6 hPa NE 6.1 km/h 12.2 km/h 62% 0.0 mm 194 W/m2
12:43 22.4 °C 14.8 °C 1021.2 hPa NE 5.0 km/h 12.2 km/h 62% 0.0 mm 208 W/m2
12:49 22.4 °C 14.5 °C 1021.2 hPa NE 8.7 km/h 13.4 km/h 61% 0.0 mm 240 W/m2
12:55 22.4 °C 14.8 °C 1020.9 hPa ENE 9.7 km/h 13.4 km/h 62% 0.0 mm 240 W/m2
13:01 22.5 °C 14.9 °C 1020.9 hPa ENE 9.7 km/h 14.8 km/h 62% 0.0 mm 216 W/m2
13:07 22.3 °C 14.7 °C 1020.5 hPa ENE 8.7 km/h 14.8 km/h 62% 0.0 mm 193 W/m2
13:13 22.3 °C 14.9 °C 1020.5 hPa NE 6.1 km/h 14.8 km/h 63% 0.0 mm 190 W/m2
13:31 22.5 °C 15.4 °C 1020.2 hPa ENE 3.5 km/h 12.2 km/h 64% 0.0 mm 176 W/m2
13:37 22.4 °C 15.0 °C 1020.2 hPa NE 7.2 km/h 11.1 km/h 63% 0.0 mm 148 W/m2
13:43 22.5 °C 15.4 °C 1020.2 hPa ENE 7.2 km/h 11.1 km/h 64% 0.0 mm 143 W/m2
13:49 22.3 °C 15.2 °C 1020.2 hPa NE 3.5 km/h 9.7 km/h 64% 0.0 mm 148 W/m2
13:55 22.4 °C 15.5 °C 1019.9 hPa NE 2.6 km/h 8.7 km/h 65% 0.0 mm 160 W/m2
14:01 22.7 °C 15.6 °C 1019.9 hPa Calm   6.1 km/h 64% 0.0 mm 153 W/m2
14:07 22.9 °C 15.7 °C 1019.9 hPa Calm   5.0 km/h 64% 0.0 mm 148 W/m2
14:13 22.9 °C 15.5 °C 1019.5 hPa ENE 2.6 km/h 7.2 km/h 63% 0.0 mm 155 W/m2
14:19 22.9 °C 15.7 °C 1019.5 hPa Calm   7.2 km/h 64% 0.0 mm 165 W/m2
14:25 22.8 °C 15.9 °C 1019.5 hPa ESE 2.6 km/h 6.1 km/h 65% 0.0 mm 137 W/m2
14:31 22.2 °C 16.1 °C 1019.5 hPa SSE 3.5 km/h 7.2 km/h 68% 0.0 mm 129 W/m2
14:37 22.1 °C 16.4 °C 1019.5 hPa Calm   7.2 km/h 70% 0.0 mm 140 W/m2
14:43 22.3 °C 16.6 °C 1019.5 hPa SE 3.5 km/h 6.1 km/h 70% 0.0 mm 152 W/m2
14:49 22.4 °C 16.7 °C 1019.5 hPa SSE 2.6 km/h 6.1 km/h 70% 0.0 mm 163 W/m2
14:55 22.6 °C 16.7 °C 1019.5 hPa South 1.1 km/h 6.1 km/h 69% 0.0 mm 173 W/m2
15:01 23.4 °C 16.9 °C 1019.5 hPa South 1.1 km/h 5.0 km/h 67% 0.0 mm 294 W/m2
15:07 25.0 °C 17.2 °C 1019.2 hPa SSE 1.1 km/h 6.1 km/h 62% 0.0 mm 334 W/m2
15:13 25.8 °C 17.2 °C 1019.2 hPa SE 3.5 km/h 6.1 km/h 59% 0.0 mm 264 W/m2
15:19 25.8 °C 16.9 °C 1018.8 hPa SE 1.1 km/h 6.1 km/h 58% 0.0 mm 240 W/m2
15:25 25.5 °C 16.9 °C 1018.8 hPa Calm   5.0 km/h 59% 0.0 mm 214 W/m2
15:31 25.2 °C 16.7 °C 1018.8 hPa Calm   6.1 km/h 59% 0.0 mm 332 W/m2
15:37 25.3 °C 17.0 °C 1018.5 hPa SE 1.1 km/h 8.7 km/h 60% 0.0 mm 189 W/m2
15:43 25.8 °C 17.2 °C 1018.8 hPa Calm   7.2 km/h 59% 0.0 mm 175 W/m2
15:49 25.7 °C 17.1 °C 1018.8 hPa Calm   5.0 km/h 59% 0.0 mm 111 W/m2
15:55 24.7 °C 16.7 °C 1018.5 hPa ENE 2.6 km/h 5.0 km/h 61% 0.0 mm 113 W/m2
16:01 23.9 °C 16.9 °C 1018.5 hPa NE 7.2 km/h 9.7 km/h 65% 0.0 mm 101 W/m2
16:07 22.9 °C 16.2 °C 1018.5 hPa NE 6.1 km/h 14.8 km/h 66% 0.0 mm 89 W/m2
16:13 22.6 °C 16.2 °C 1018.5 hPa NE 5.0 km/h 14.8 km/h 67% 0.0 mm 94 W/m2
16:19 22.6 °C 16.4 °C 1018.5 hPa NE 6.1 km/h 13.4 km/h 68% 0.0 mm 94 W/m2
16:25 22.4 °C 16.2 °C 1018.5 hPa NE 9.7 km/h 15.8 km/h 68% 0.0 mm 92 W/m2
16:31 22.2 °C 16.3 °C 1018.8 hPa NE 11.1 km/h 17.2 km/h 69% 0.0 mm 99 W/m2
16:37 22.5 °C 16.3 °C 1018.5 hPa NE 6.1 km/h 17.2 km/h 68% 0.0 mm 120 W/m2
16:43 22.9 °C 16.2 °C 1018.8 hPa ENE 9.7 km/h 15.8 km/h 66% 0.0 mm 110 W/m2
16:49 22.4 °C 16.0 °C 1018.8 hPa ENE 3.5 km/h 14.8 km/h 67% 0.0 mm 103 W/m2
16:55 22.2 °C 16.3 °C 1018.5 hPa ENE 8.7 km/h 14.8 km/h 69% 0.0 mm 75 W/m2
17:01 21.8 °C 16.6 °C 1018.5 hPa NE 9.7 km/h 18.3 km/h 72% 0.0 mm 49 W/m2
17:07 21.4 °C 16.4 °C 1018.8 hPa NE 15.8 km/h 18.3 km/h 73% 0.0 mm 44 W/m2
17:29 20.9 °C 16.1 °C 1018.8 hPa ENE 6.1 km/h 15.8 km/h 74% 0.0 mm 15 W/m2
17:35 20.8 °C 16.2 °C 1018.8 hPa ENE 1.1 km/h 14.8 km/h 75% 0.0 mm 9 W/m2
17:41 20.6 °C 16.0 °C 1018.8 hPa ENE 6.1 km/h 11.1 km/h 75% 0.0 mm 3 W/m2
17:47 20.5 °C 15.9 °C 1018.8 hPa Calm   11.1 km/h 75% 0.0 mm 1 W/m2
17:53 20.4 °C 16.1 °C 1018.8 hPa Calm   1.1 km/h 76% 0.0 mm 0 W/m2
17:59 20.2 °C 16.1 °C 1018.8 hPa Calm     77% 0.0 mm 0 W/m2
18:05 20.2 °C 16.1 °C 1018.8 hPa Calm     77% 0.0 mm 0 W/m2
18:11 20.2 °C 16.3 °C 1019.2 hPa Calm     78% 0.0 mm 0 W/m2
18:17 20.1 °C 16.2 °C 1019.2 hPa Calm     78% 0.0 mm 0 W/m2
18:23 20.1 °C 16.3 °C 1019.2 hPa Calm     79% 0.0 mm 0 W/m2
18:29 20.1 °C 16.3 °C 1018.8 hPa Calm     79% 0.0 mm 0 W/m2
18:35 20.1 °C 16.6 °C 1019.2 hPa Calm     80% 0.0 mm 0 W/m2
18:41 20.1 °C 16.6 °C 1019.2 hPa Calm     80% 0.0 mm 0 W/m2
18:47 20.1 °C 16.6 °C 1019.5 hPa Calm     80% 0.0 mm 0 W/m2
18:53 20.1 °C 16.6 °C 1019.5 hPa Calm     80% 0.0 mm 0 W/m2
19:00 20.1 °C 16.6 °C 1019.9 hPa Calm     80% 0.0 mm 0 W/m2
19:05 20.0 °C 16.7 °C 1019.9 hPa Calm     81% 0.0 mm 0 W/m2
19:11 20.0 °C 16.7 °C 1019.5 hPa Calm     81% 0.0 mm 0 W/m2
19:17 20.0 °C 16.7 °C 1019.9 hPa Calm     81% 0.0 mm 0 W/m2
19:23 20.0 °C 16.8 °C 1019.9 hPa Calm     82% 0.0 mm 0 W/m2
19:29 19.9 °C 16.9 °C 1019.9 hPa Calm     83% 0.0 mm 0 W/m2
19:35 19.8 °C 16.8 °C 1019.5 hPa Calm     83% 0.0 mm 0 W/m2
19:41 19.7 °C 16.9 °C 1019.5 hPa Calm     84% 0.0 mm 0 W/m2
19:47 19.6 °C 16.8 °C 1019.5 hPa Calm     84% 0.0 mm 0 W/m2
19:53 19.5 °C 16.7 °C 1019.5 hPa Calm     84% 0.0 mm 0 W/m2
19:59 19.5 °C 16.7 °C 1019.5 hPa Calm     84% 0.0 mm 0 W/m2
20:05 19.5 °C 16.7 °C 1019.5 hPa Calm     84% 0.0 mm 0 W/m2
20:11 19.5 °C 16.7 °C 1019.5 hPa Calm     84% 0.0 mm 0 W/m2
20:17 19.5 °C 16.7 °C 1019.5 hPa Calm     84% 0.0 mm 0 W/m2
20:23 19.4 °C 16.8 °C 1019.5 hPa Calm     85% 0.0 mm 0 W/m2
20:29 19.4 °C 16.8 °C 1019.5 hPa Calm     85% 0.0 mm 0 W/m2
20:35 19.4 °C 16.8 °C 1019.9 hPa Calm     85% 0.0 mm 0 W/m2
20:41 19.3 °C 16.7 °C 1019.9 hPa Calm     85% 0.0 mm 0 W/m2
20:47 19.2 °C 16.6 °C 1019.9 hPa Calm     85% 0.0 mm 0 W/m2
20:53 19.2 °C 16.6 °C 1019.9 hPa Calm     85% 0.0 mm 0 W/m2
20:59 19.2 °C 16.8 °C 1019.5 hPa Calm     86% 0.0 mm 0 W/m2
21:05 19.1 °C 16.7 °C 1019.5 hPa Calm     86% 0.0 mm 0 W/m2
21:11 19.0 °C 16.6 °C 1019.5 hPa Calm     86% 0.0 mm 0 W/m2
21:17 19.0 °C 16.6 °C 1019.5 hPa Calm     86% 0.0 mm 0 W/m2
21:23 18.9 °C 16.9 °C 1019.5 hPa Calm     88% 0.0 mm 0 W/m2
21:29 18.9 °C 16.9 °C 1019.5 hPa Calm     88% 0.0 mm 0 W/m2
21:35 18.9 °C 16.9 °C 1019.5 hPa Calm     88% 0.0 mm 0 W/m2
21:41 18.9 °C 16.9 °C 1019.9 hPa Calm     88% 0.0 mm 0 W/m2
21:47 18.9 °C 16.9 °C 1019.5 hPa Calm     88% 0.0 mm 0 W/m2
21:53 18.8 °C 16.8 °C 1019.9 hPa Calm     88% 0.0 mm 0 W/m2
21:59 18.8 °C 16.8 °C 1020.2 hPa Calm     88% 0.0 mm 0 W/m2
22:05 18.9 °C 17.1 °C 1019.9 hPa Calm     89% 0.0 mm 0 W/m2
22:11 19.0 °C 17.0 °C 1019.9 hPa Calm     88% 0.0 mm 0 W/m2
22:17 19.1 °C 16.9 °C 1019.9 hPa NNE 3.5 km/h 7.2 km/h 87% 0.0 mm 0 W/m2
22:23 19.2 °C 17.0 °C 1019.9 hPa NE 2.6 km/h 9.7 km/h 87% 0.0 mm 0 W/m2
22:29 19.3 °C 16.9 °C 1019.9 hPa NE 5.0 km/h 9.7 km/h 86% 0.0 mm 0 W/m2
22:35 19.3 °C 16.9 °C 1019.9 hPa NE 5.0 km/h 9.7 km/h 86% 0.0 mm 0 W/m2
22:41 19.5 °C 16.9 °C 1019.5 hPa NE 6.1 km/h 15.8 km/h 85% 0.0 mm 0 W/m2
22:47 19.5 °C 16.9 °C 1019.5 hPa NE 5.0 km/h 15.8 km/h 85% 0.0 mm 0 W/m2
22:53 19.6 °C 17.0 °C 1019.9 hPa Calm   13.4 km/h 85% 0.0 mm 0 W/m2
22:59 19.5 °C 16.9 °C 1019.5 hPa ENE 3.5 km/h 6.1 km/h 85% 0.0 mm 0 W/m2
23:05 19.4 °C 16.8 °C 1019.5 hPa Calm   6.1 km/h 85% 0.0 mm 0 W/m2
23:11 19.4 °C 16.8 °C 1019.5 hPa Calm   5.0 km/h 85% 0.0 mm 0 W/m2
23:17 19.3 °C 16.7 °C 1019.5 hPa Calm   3.5 km/h 85% 0.0 mm 0 W/m2
23:23 19.2 °C 16.6 °C 1019.2 hPa Calm   3.5 km/h 85% 0.0 mm 0 W/m2
23:29 19.2 °C 16.6 °C 1019.2 hPa Calm   1.1 km/h 85% 0.0 mm 0 W/m2
23:35 19.2 °C 16.8 °C 1018.8 hPa Calm     86% 0.0 mm 0 W/m2
23:41 19.2 °C 16.8 °C 1018.8 hPa NE 8.7 km/h 12.2 km/h 86% 0.0 mm 0 W/m2
23:47 19.3 °C 16.7 °C 1018.8 hPa Calm   12.2 km/h 85% 0.0 mm 0 W/m2
23:53 19.2 °C 16.6 °C 1018.8 hPa Calm   7.2 km/h 85% 0.0 mm 0 W/m2
Northern Hawkes Bay. New Zealand Historic Data
Compliments of Weather Underground - 2 mb